Overview Statistics Trail Chart Weather Telemetry Raw packets
 

This is the latest recevied weather packets stored in our database for station/object SP7RCS-11. If no packets are shown the sender has not sent any weather packets the latest 10 day(s).

<< 1 2 3 >>
Time Temp. Humidity Pressure Rain* Wind** Luminosity Snow
1777811393 37.78° C 14% 1010.5 hPa - - - -
1777810493 38.89° C 13% 1010.6 hPa - - - -
1777809592 40.56° C 12% 1010.8 hPa - - - -
1777808690 42.22° C 11% 1011 hPa - - - -
1777807790 42.78° C 10% 1011.2 hPa - - - -
1777806889 43.33° C 11% 1011.2 hPa - - - -
1777805997 44.44° C 11% 1011.7 hPa - - - -
1777805089 44.44° C 10% 1011.7 hPa - - - -
1777804189 43.33° C 11% 1011.9 hPa - - - -
1777803289 41.67° C 11% 1012 hPa - - - -
1777802385 41.67° C 12% 1012.2 hPa - - - -
1777801485 41.11° C 13% 1012.3 hPa - - - -
1777800585 40° C 14% 1012.6 hPa - - - -
1777799680 38.33° C 15% 1012.7 hPa - - - -
1777798780 37.78° C 18% 1012.9 hPa - - - -
1777797879 37.22° C 19% 1013.1 hPa - - - -
1777796979 35.56° C 21% 1013.2 hPa - - - -
1777796079 33.89° C 23% 1013.2 hPa - - - -
1777795179 33.89° C 25% 1013.3 hPa - - - -
1777794276 32.78° C 27% 1013.3 hPa - - - -
1777793375 31.11° C 32% 1013.4 hPa - - - -
1777792475 17.22° C 52% 1013.7 hPa - - - -

* Rain since midnight (hover to see other rain measurements)
** Current wind speed in m/s (hover to see current wind gust speed)